Delray Beach, FL

7:50 AM EDT on August 05, 2015 (GMT -0400)
J-Ball at Mizner Country Club | | Change Station
CLOSE
Current Station
Personal Weather Station
Location: Delray Beach, FL
Elevation: 19 ft
Nearby Weather Stations

Elev 19 ft 26.43 °N, 80.18 °W | Updated 6 seconds ago

Partly Cloudy
Partly Cloudy
82.6 °F
Feels Like 93 °F
N
0.0
Wind Variable Wind from NE
Gusts 0.0 mph

Today
High -- | Low -- °F
--% Chance of Precip.
Yesterday
High -- | Low -- °F
Precip. -- in
6:47 AM 8:05 PM
Waning Gibbous, 68% visible
Pressure 30.08 in
Visibility 10.0 miles
Clouds Clear
Heat Index 93 °F
Dew Point 79 °F
Humidity 90%
Rainfall 0.00 in
Snow Depth Not available.
UV 0 out of 12
Pollen 1.90 out of 12
Air Quality Not available.
Flu Activity Not available.
METAR KPMP 051053Z 01003KT 10SM CLR 26/24 A3008 RMK AO2 SLP186 T02610239

More Conditions Fewer Conditions

Pressure 30.08 in
Visibility 10.0 miles
Clouds Clear
Heat Index 93 °F
Dew Point 79 °F
Humidity 90%
Rainfall 0.00 in
Snow Depth Not available.
UV 0 out of 12
Pollen 1.90 out of 12
Air Quality Not available.
Flu Activity Not available.
METAR KPMP 051053Z 01003KT 10SM CLR 26/24 A3008 RMK AO2 SLP186 T02610239

More Conditions Fewer Conditions

10-Day Weather Forecast

×

Almanac

Astronomy

Aug. 05, 2015 Rise Set
Actual Time
Civil Twilight
Nautical Twilight
Astronomical Twilight
Moon
Length of Visible Light
Length of Day
Tomorrow will be .
, % of the Moon is Illuminated

Today's Extremes

State Highs State Lows

Community

WunderPhotos

Upload Photos

1,844,141 photos uploaded!

WunderBlogs® & News

Nearby

Air Quality

  Air Quality AQ Index Pollutant
Not available.

Snow Depth

Station Depth Elevation

Earthquake Activity

City Distance Mag. Time & Date
Minimum magnitude displayed is 2.5.

Coastal Water Temperatures

Place Temperature

Stations

Nearby Weather Stations

Station Location Temp. Windchill Dew Point Humidity Wind Precip. Elev Updated Type